Time;durP1;ratioP1;P1;durP2;ratioP2;P2;SDS_P1;SDS_P2;PMS_P1;PMS_P2;Temp;Humidity;BMP_temperature;BMP_pressure;BME280_temperature;BME280_humidity;BME280_pressure;Samples;Min_cycle;Max_cycle;Signal;HPM_P1;HPM_P2
2020/12/14 00:01:03;;;;;;;7.70;2.87;;;;;;;6.46;91.13;100548.28;4985347;28;20026;-79
2020/12/14 00:03:29;;;;;;;8.40;2.50;;;;;;;6.46;90.73;100544.06;4985333;28;20522;-80
2020/12/14 00:05:54;;;;;;;8.25;2.45;;;;;;;6.51;91.01;100534.03;4985237;28;20019;-79
2020/12/14 00:08:19;;;;;;;7.45;3.38;;;;;;;6.56;90.44;100529.97;4984854;28;20019;-80
2020/12/14 00:10:44;;;;;;;5.30;2.00;;;;;;;6.54;90.70;100522.25;4986232;28;20117;-81
2020/12/14 00:13:10;;;;;;;8.83;2.40;;;;;;;6.52;90.58;100508.56;4985441;28;20468;-83
2020/12/14 00:15:35;;;;;;;9.93;3.27;;;;;;;6.58;90.60;100509.59;4986564;28;20286;-80
2020/12/14 00:18:00;;;;;;;4.73;1.90;;;;;;;6.65;90.26;100508.97;5002213;22;20113;-84
2020/12/14 00:20:25;;;;;;;5.83;1.77;;;;;;;6.62;90.41;100525.06;5023738;28;20299;-80
2020/12/14 00:22:51;;;;;;;5.70;1.70;;;;;;;6.65;90.43;100524.28;5023649;28;20030;-82
2020/12/14 00:25:16;;;;;;;9.07;2.30;;;;;;;6.64;90.28;100512.34;5025579;28;20028;-83
2020/12/14 00:27:41;;;;;;;10.67;1.90;;;;;;;6.66;90.17;100513.25;5021786;28;20624;-82
2020/12/14 00:30:07;;;;;;;7.45;2.40;;;;;;;6.73;89.60;100508.41;5014307;28;20067;-81
2020/12/14 00:32:32;;;;;;;6.30;2.27;;;;;;;6.72;90.00;100505.81;5014875;28;20047;-81
2020/12/14 00:34:57;;;;;;;6.10;1.90;;;;;;;6.78;89.22;100506.00;5012677;28;20292;-80
2020/12/14 00:37:23;;;;;;;3.63;1.75;;;;;;;6.74;89.67;100505.03;5014793;28;20723;-81
2020/12/14 00:39:48;;;;;;;6.27;2.10;;;;;;;6.77;89.83;100510.25;5013227;28;20071;-81
2020/12/14 00:42:13;;;;;;;4.93;1.60;;;;;;;6.81;89.52;100506.09;5013613;28;20030;-81
2020/12/14 00:44:39;;;;;;;6.50;1.97;;;;;;;6.80;89.74;100494.16;5011846;28;20300;-82
2020/12/14 00:47:04;;;;;;;6.50;2.10;;;;;;;6.78;89.90;100509.44;5011339;28;20287;-82
2020/12/14 00:49:29;;;;;;;5.30;1.80;;;;;;;6.77;89.54;100505.13;5010795;28;20017;-81
2020/12/14 00:51:54;;;;;;;8.43;2.28;;;;;;;6.95;88.82;100501.47;5012082;28;20387;-81
2020/12/14 00:54:20;;;;;;;6.80;1.67;;;;;;;6.92;88.77;100499.69;5012735;28;20480;-81
2020/12/14 00:56:45;;;;;;;5.97;2.10;;;;;;;6.87;89.28;100493.56;5010453;28;20353;-81
2020/12/14 00:59:11;;;;;;;4.67;1.90;;;;;;;6.85;89.36;100503.72;5010060;28;20032;-81
2020/12/14 01:01:36;;;;;;;6.45;1.92;;;;;;;6.82;89.54;100508.72;5009791;28;20284;-83
2020/12/14 01:04:02;;;;;;;4.68;1.73;;;;;;;6.93;89.33;100505.66;5009836;28;20018;-83
2020/12/14 01:06:27;;;;;;;6.63;2.10;;;;;;;6.95;89.53;100494.69;5009722;28;20018;-80
2020/12/14 01:08:52;;;;;;;7.10;1.97;;;;;;;6.91;90.17;100497.09;5009656;28;20403;-80
2020/12/14 01:11:23;;;;;;;7.97;2.40;;;;;;;6.89;90.53;100496.16;5009802;28;20025;-82
2020/12/14 01:13:48;;;;;;;5.33;2.10;;;;;;;6.89;90.18;100488.50;5006919;28;20056;-80
2020/12/14 01:16:13;;;;;;;8.47;1.77;;;;;;;6.92;90.37;100480.94;5011283;28;20038;-81
2020/12/14 01:18:38;;;;;;;4.87;2.13;;;;;;;6.93;90.02;100485.25;5009342;28;20057;-81
2020/12/14 01:21:07;;;;;;;8.17;2.07;;;;;;;6.93;90.08;100480.13;5009434;28;20292;-80
2020/12/14 01:23:33;;;;;;;6.03;2.37;;;;;;;6.96;89.94;100465.78;5008248;28;20273;-82
2020/12/14 01:25:58;;;;;;;4.85;1.90;;;;;;;7.01;89.31;100466.78;5010542;28;20041;-81
2020/12/14 01:28:24;;;;;;;7.15;2.15;;;;;;;6.99;90.04;100476.09;5009435;28;20025;-82
2020/12/14 01:30:49;;;;;;;6.07;1.98;;;;;;;6.99;90.30;100485.44;5009047;28;20030;-81
2020/12/14 01:33:14;;;;;;;4.72;1.90;;;;;;;7.01;89.84;100479.56;5010083;28;20155;-81
2020/12/14 01:35:40;;;;;;;6.95;2.58;;;;;;;7.01;89.85;100486.34;5011412;28;20026;-83
2020/12/14 01:38:05;;;;;;;6.00;1.90;;;;;;;7.01;90.38;100476.13;5024076;28;20041;-80
2020/12/14 01:40:30;;;;;;;4.93;2.13;;;;;;;6.93;90.82;100483.56;5021798;28;20745;-83
2020/12/14 01:42:56;;;;;;;5.93;2.35;;;;;;;7.03;90.35;100494.91;5021483;28;20048;-81
2020/12/14 01:45:21;;;;;;;5.30;2.30;;;;;;;6.95;90.89;100494.69;5020209;28;20030;-82
2020/12/14 01:47:51;;;;;;;5.47;2.42;;;;;;;7.02;90.53;100493.19;5018500;28;20018;-81
2020/12/14 01:50:17;;;;;;;6.33;1.83;;;;;;;7.04;90.78;100505.19;5014924;28;20013;-80
2020/12/14 01:52:45;;;;;;;5.90;2.20;;;;;;;7.02;90.59;100503.41;5016607;28;20438;-80
2020/12/14 01:55:13;;;;;;;5.07;2.10;;;;;;;6.97;90.95;100505.81;5017107;28;20022;-83
2020/12/14 01:57:39;;;;;;;9.47;2.23;;;;;;;6.93;91.59;100503.13;5014450;28;20049;-82
2020/12/14 02:00:07;;;;;;;3.47;1.73;;;;;;;7.02;91.49;100498.28;5016577;28;20513;-82
2020/12/14 02:02:32;;;;;;;5.03;2.50;;;;;;;6.96;91.97;100495.56;5017478;28;20029;-79
2020/12/14 02:04:58;;;;;;;6.53;2.85;;;;;;;6.93;92.17;100486.09;5014200;28;20540;-81
2020/12/14 02:07:25;;;;;;;8.15;2.58;;;;;;;6.95;92.25;100486.16;5015769;28;20049;-81
2020/12/14 02:09:53;;;;;;;8.00;3.23;;;;;;;6.91;93.14;100481.78;5014198;28;20491;-83
2020/12/14 02:12:21;;;;;;;9.20;2.60;;;;;;;6.87;93.32;100480.81;5015478;28;20032;-82
2020/12/14 02:14:48;;;;;;;7.17;2.60;;;;;;;6.82;93.58;100478.06;5013608;28;20033;-82
2020/12/14 02:17:18;;;;;;;7.60;3.10;;;;;;;6.80;93.99;100477.16;5012281;28;20059;-81
2020/12/14 02:19:44;;;;;;;7.37;3.23;;;;;;;6.81;94.38;100480.56;5013492;28;20050;-80
2020/12/14 02:22:09;;;;;;;10.20;3.47;;;;;;;6.86;94.53;100487.59;5014167;28;20216;-79
2020/12/14 02:24:34;;;;;;;6.17;3.40;;;;;;;6.81;94.18;100481.44;5013548;28;20033;-80
2020/12/14 02:26:59;;;;;;;4.87;3.27;;;;;;;6.81;94.29;100486.56;5013983;28;20473;-80
2020/12/14 02:29:25;;;;;;;5.63;3.33;;;;;;;6.76;94.72;100482.97;5012362;28;20500;-80
2020/12/14 02:31:50;;;;;;;9.98;4.22;;;;;;;6.81;94.56;100478.88;5011288;28;20090;-81
2020/12/14 02:34:15;;;;;;;10.70;4.03;;;;;;;6.75;94.94;100473.59;5013032;28;20459;-81
2020/12/14 02:36:41;;;;;;;9.80;3.93;;;;;;;6.80;95.20;100474.59;5009989;28;20068;-82
2020/12/14 02:39:06;;;;;;;10.63;5.05;;;;;;;6.71;95.08;100476.00;5010701;28;20277;-80
2020/12/14 02:41:32;;;;;;;11.02;4.20;;;;;;;6.76;95.52;100472.78;5010152;28;20033;-85
2020/12/14 02:43:58;;;;;;;11.70;4.43;;;;;;;6.79;95.15;100475.41;5007682;28;20041;-80
2020/12/14 02:46:23;;;;;;;6.35;3.67;;;;;;;6.78;95.23;100466.03;5011596;28;20033;-81
2020/12/14 02:48:49;;;;;;;8.93;3.85;;;;;;;6.77;95.43;100464.28;5011339;28;20387;-80
2020/12/14 02:51:18;;;;;;;4.78;3.45;;;;;;;6.80;95.51;100459.28;5014935;28;20013;-78
2020/12/14 02:53:44;;;;;;;10.97;3.90;;;;;;;6.78;95.35;100466.03;5012910;28;20030;-81
2020/12/14 02:56:09;;;;;;;6.70;3.95;;;;;;;6.78;95.72;100455.81;5012981;28;20029;-82
2020/12/14 02:58:35;;;;;;;7.95;3.85;;;;;;;6.86;95.74;100458.66;5014168;28;20460;-81
2020/12/14 03:01:00;;;;;;;10.67;4.33;;;;;;;6.86;95.45;100453.53;5013545;28;20496;-81
2020/12/14 03:03:25;;;;;;;11.03;4.40;;;;;;;6.85;95.50;100450.13;5012933;28;20018;-81
2020/12/14 03:05:50;;;;;;;7.73;4.00;;;;;;;6.89;95.49;100450.22;5014048;28;20537;-79
2020/12/14 03:08:16;;;;;;;7.50;4.13;;;;;;;6.84;95.30;100443.28;5011692;28;20273;-83
2020/12/14 03:10:41;;;;;;;8.73;5.07;;;;;;;6.88;95.49;100440.81;5013091;28;20641;-83
2020/12/14 03:13:06;;;;;;;8.80;5.10;;;;;;;6.86;95.87;100433.97;5011610;28;20284;-79
2020/12/14 03:15:32;;;;;;;8.10;4.70;;;;;;;6.93;95.62;100445.25;5013088;28;20089;-81
2020/12/14 03:17:57;;;;;;;9.10;5.07;;;;;;;6.90;95.86;100444.28;5012913;28;20284;-81
2020/12/14 03:20:22;;;;;;;10.50;5.70;;;;;;;6.89;95.88;100445.97;5012118;28;20112;-79
2020/12/14 03:22:47;;;;;;;10.60;6.47;;;;;;;6.91;95.86;100440.91;5013412;28;20100;-80
2020/12/14 03:25:13;;;;;;;13.97;7.13;;;;;;;6.98;96.25;100440.28;5012465;28;20300;-82
2020/12/14 03:27:38;;;;;;;13.53;7.83;;;;;;;7.01;95.85;100435.28;5011534;28;20146;-80
2020/12/14 03:30:04;;;;;;;11.23;7.27;;;;;;;7.06;95.84;100441.38;5017481;28;20281;-80
2020/12/14 03:32:30;;;;;;;10.63;7.70;;;;;;;7.04;95.65;100432.81;5025724;28;20117;-81
2020/12/14 03:34:55;;;;;;;14.57;8.00;;;;;;;7.07;95.80;100432.91;5025354;28;20083;-81
2020/12/14 03:37:20;;;;;;;14.03;8.90;;;;;;;7.06;95.58;100426.06;5022087;28;20030;-81
2020/12/14 03:39:45;;;;;;;17.03;9.17;;;;;;;7.08;95.57;100424.41;5023311;28;20025;-79
2020/12/14 03:42:11;;;;;;;14.80;9.73;;;;;;;7.13;95.97;100433.09;5022147;28;20288;-80
2020/12/14 03:44:36;;;;;;;14.87;9.40;;;;;;;7.09;95.66;100436.38;5021637;28;20060;-82
2020/12/14 03:47:01;;;;;;;17.95;10.20;;;;;;;7.13;95.30;100440.75;5020765;28;20707;-82
2020/12/14 03:49:27;;;;;;;12.90;9.23;;;;;;;7.18;95.47;100439.22;5018953;28;20025;-81
2020/12/14 03:51:52;;;;;;;13.15;9.95;;;;;;;7.11;95.60;100437.28;5019090;28;20262;-82
2020/12/14 03:54:21;;;;;;;15.67;9.43;;;;;;;7.17;95.81;100432.38;5017754;28;20109;-84
2020/12/14 03:56:46;;;;;;;16.33;10.20;;;;;;;7.14;95.90;100425.47;5018034;28;20027;-82
2020/12/14 03:59:12;;;;;;;15.43;8.55;;;;;;;7.17;95.80;100427.28;5015630;28;20552;-83
2020/12/14 04:01:37;;;;;;;19.17;9.13;;;;;;;7.16;95.70;100428.09;5016374;28;20029;-81
2020/12/14 04:04:02;;;;;;;15.63;9.40;;;;;;;7.17;95.75;100420.47;5016259;28;20093;-82
2020/12/14 04:06:28;;;;;;;13.77;8.87;;;;;;;7.17;95.77;100417.94;5016030;28;20277;-82
2020/12/14 04:08:54;;;;;;;12.18;8.85;;;;;;;7.19;95.93;100433.28;5017746;28;20026;-81
2020/12/14 04:11:19;;;;;;;;;;;;;;;7.22;95.82;100428.28;5016758;28;20026;-82
2020/12/14 04:13:46;;;;;;;13.17;9.50;;;;;;;7.19;95.82;100423.09;5015014;28;19972;-83
2020/12/14 04:16:12;;;;;;;12.50;7.13;;;;;;;7.25;95.84;100423.25;5014787;28;20441;-80
2020/12/14 04:18:37;;;;;;;14.02;7.93;;;;;;;7.18;95.73;100423.91;5013709;28;20047;-81
2020/12/14 04:21:04;;;;;;;14.00;8.15;;;;;;;7.24;95.93;100421.53;5016012;28;20399;-81
2020/12/14 04:23:29;;;;;;;13.67;8.40;;;;;;;7.22;96.07;100420.63;5015728;28;20104;-81
2020/12/14 04:25:55;;;;;;;13.52;8.63;;;;;;;7.27;95.79;100416.50;5015449;28;20048;-81
2020/12/14 04:28:20;;;;;;;15.32;9.82;;;;;;;7.29;95.80;100416.56;5013981;28;20041;-81
2020/12/14 04:30:45;;;;;;;14.30;9.65;;;;;;;7.28;95.84;100417.38;5012690;28;20047;-82
2020/12/14 04:33:10;;;;;;;13.13;9.77;;;;;;;7.32;95.84;100417.50;5013594;28;20049;-80
2020/12/14 04:35:36;;;;;;;16.43;9.47;;;;;;;7.29;95.76;100409.75;5012014;28;20105;-81
2020/12/14 04:38:01;;;;;;;13.15;9.73;;;;;;;7.29;96.08;100409.75;5012923;28;20045;-79
2020/12/14 04:40:27;;;;;;;15.10;10.55;;;;;;;7.30;95.92;100406.38;5012127;28;20026;-79
2020/12/14 04:42:56;;;;;;;16.87;11.30;;;;;;;7.30;96.05;100411.50;5012066;28;20025;-80
2020/12/14 04:45:24;;;;;;;14.10;10.23;;;;;;;7.31;96.22;100405.56;5011092;28;20365;-81
2020/12/14 04:47:49;;;;;;;16.47;10.33;;;;;;;7.35;96.19;100381.81;5011130;28;20116;-81
2020/12/14 04:50:15;;;;;;;17.10;11.75;;;;;;;7.31;96.04;100371.47;5010969;28;20049;-79
2020/12/14 04:52:42;;;;;;;16.73;10.57;;;;;;;7.41;95.86;100381.13;5010913;28;20075;-80
2020/12/14 04:55:10;;;;;;;18.40;10.60;;;;;;;7.40;95.99;100385.38;5009132;28;20113;-80
2020/12/14 04:57:35;;;;;;;19.53;11.63;;;;;;;7.39;96.15;100380.22;5011220;28;20037;-80
2020/12/14 05:00:00;;;;;;;17.88;12.02;;;;;;;7.46;96.04;100380.44;5011005;28;20601;-80
2020/12/14 05:02:26;;;;;;;17.53;10.93;;;;;;;7.46;96.02;100397.44;5011030;28;20037;-78
2020/12/14 05:04:51;;;;;;;17.13;11.70;;;;;;;7.47;96.08;100400.06;5011729;28;20272;-80
2020/12/14 05:07:16;;;;;;;19.50;12.77;;;;;;;7.51;96.08;100410.41;5011198;28;20281;-79
2020/12/14 05:09:42;;;;;;;19.70;11.73;;;;;;;7.53;95.99;100403.63;5011085;28;20277;-80
2020/12/14 05:12:19;;;;;;;16.10;11.30;;;;;;;7.58;95.98;100409.75;5011254;28;20427;-81
2020/12/14 05:14:44;;;;;;;20.75;12.23;;;;;;;7.53;95.86;100403.63;5011359;28;20029;-79
2020/12/14 05:17:24;;;;;;;18.17;12.50;;;;;;;7.58;96.06;100410.59;5011787;28;20032;-79
2020/12/14 05:19:49;;;;;;;16.93;11.70;;;;;;;7.64;96.04;100402.25;5012507;28;20026;-79
2020/12/14 05:22:17;;;;;;;15.60;11.25;;;;;;;7.68;95.97;100410.03;5018656;28;20033;-81
2020/12/14 05:24:48;;;;;;;16.50;11.63;;;;;;;7.64;95.61;100410.78;5020900;28;20043;-80
2020/12/14 05:27:28;;;;;;;16.00;11.30;;;;;;;7.64;95.91;100415.03;5021748;28;20022;-80
2020/12/14 05:29:53;;;;;;;17.30;11.60;;;;;;;7.68;95.95;100410.03;5014900;28;20026;-78
2020/12/14 05:32:19;;;;;;;16.40;11.88;;;;;;;7.71;95.88;100422.91;5011904;28;21079;-77
2020/12/14 05:34:44;;;;;;;20.67;11.30;;;;;;;7.77;95.68;100419.66;5009903;28;20479;-80
2020/12/14 05:37:12;;;;;;;15.70;10.88;;;;;;;7.76;95.77;100420.47;5013412;28;20284;-79
2020/12/14 05:39:39;;;;;;;17.23;11.63;;;;;;;7.74;95.91;100411.88;5012233;28;20021;-77
2020/12/14 05:42:10;;;;;;;14.57;11.30;;;;;;;7.76;96.06;100413.66;5010656;28;20053;-77
2020/12/14 05:44:36;;;;;;;20.70;11.97;;;;;;;7.79;95.58;100412.88;5011220;28;20041;-77
2020/12/14 05:47:01;;;;;;;23.23;12.20;;;;;;;7.78;95.97;100411.16;5008654;28;20104;-77
2020/12/14 05:49:27;;;;;;;16.25;10.65;;;;;;;7.80;95.85;100409.50;5010981;28;20103;-78
2020/12/14 05:52:00;;;;;;;18.73;11.30;;;;;;;7.83;95.77;100408.75;5013427;28;20406;-79
2020/12/14 05:54:36;;;;;;;18.47;11.13;;;;;;;7.84;95.78;100416.47;5013952;28;20427;-77
2020/12/14 05:57:03;;;;;;;15.05;10.35;;;;;;;7.87;95.82;100406.31;5013451;28;20480;-78
2020/12/14 05:59:33;;;;;;;16.83;11.53;;;;;;;7.86;95.71;100402.03;5012331;28;20043;-79
2020/12/14 06:02:01;;;;;;;16.27;11.07;;;;;;;7.88;95.73;100369.69;5011476;28;20022;-77
2020/12/14 06:04:27;;;;;;;18.37;11.83;;;;;;;7.95;95.63;100369.03;5013038;28;20034;-80
2020/12/14 06:06:58;;;;;;;19.75;13.40;;;;;;;7.95;95.69;100376.69;5013730;28;20018;-81
2020/12/14 06:09:24;;;;;;;21.70;13.43;;;;;;;7.93;95.74;100378.34;5011917;28;20030;-78
2020/12/14 06:11:52;;;;;;;18.00;12.93;;;;;;;7.90;95.91;100388.50;5014703;28;20030;-81
2020/12/14 06:14:20;;;;;;;19.07;12.97;;;;;;;7.91;95.84;100391.91;5012845;28;20037;-79
2020/12/14 06:16:46;;;;;;;20.57;14.07;;;;;;;7.93;95.97;100400.50;5009780;28;20479;-80
2020/12/14 06:19:13;;;;;;;19.50;14.05;;;;;;;7.99;95.92;100395.53;5013379;28;20125;-81
2020/12/14 06:22:00;;;;;;;16.13;12.37;;;;;;;7.96;96.00;100401.44;5011390;28;20030;-78
2020/12/14 06:24:26;;;;;;;19.17;13.55;;;;;;;7.99;96.00;100411.75;5012609;28;20026;-80
2020/12/14 06:26:52;;;;;;;22.30;14.17;;;;;;;7.97;96.02;100404.88;5012242;28;20430;-79
2020/12/14 06:29:33;;;;;;;23.08;14.85;;;;;;;7.98;96.09;100406.59;5010616;28;20025;-79
2020/12/14 06:31:59;;;;;;;22.37;14.30;;;;;;;8.00;95.98;100403.25;5009653;28;20021;-77
2020/12/14 06:34:33;;;;;;;23.23;14.18;;;;;;;8.04;96.09;100401.63;5012327;28;20042;-78
2020/12/14 06:37:04;;;;;;;21.57;14.60;;;;;;;8.06;96.13;100405.97;5008637;28;20045;-78
2020/12/14 06:39:31;;;;;;;22.10;14.10;;;;;;;8.05;96.04;100396.56;5010964;28;20025;-78
2020/12/14 06:42:09;;;;;;;23.47;15.47;;;;;;;8.13;95.94;100399.34;5009032;28;20071;-78
2020/12/14 06:44:43;;;;;;;18.77;13.60;;;;;;;8.11;95.67;100400.97;5009285;28;20030;-78
2020/12/14 06:47:13;;;;;;;25.53;14.47;;;;;;;8.07;96.16;100407.69;5010774;28;20395;-78
2020/12/14 06:49:38;;;;;;;23.93;14.90;;;;;;;8.16;96.01;100399.44;5008465;28;20039;-77
2020/12/14 06:52:04;;;;;;;18.02;14.07;;;;;;;8.16;95.71;100403.69;5011042;28;20150;-78
2020/12/14 06:54:42;;;;;;;19.60;14.10;;;;;;;8.21;95.92;100402.09;5009534;28;20025;-79
2020/12/14 06:57:13;;;;;;;18.37;13.47;;;;;;;8.18;96.03;100404.59;5008244;28;20030;-78
2020/12/14 06:59:39;;;;;;;26.67;14.00;;;;;;;8.24;96.01;100392.81;5007880;28;20030;-78
2020/12/14 07:02:08;;;;;;;;;;;;;;;8.25;95.95;100398.78;5010158;28;20480;-79
2020/12/14 07:04:37;;;;;;;19.50;12.50;;;;;;;8.26;95.99;100413.31;5008689;28;19917;-80
2020/12/14 07:07:05;;;;;;;16.40;12.23;;;;;;;8.38;95.62;100398.28;5009151;28;20125;-80
2020/12/14 07:09:38;;;;;;;16.17;13.13;;;;;;;8.32;95.79;100403.22;5006813;28;20037;-78
2020/12/14 07:12:09;;;;;;;21.33;12.97;;;;;;;8.36;95.85;100402.50;5010294;28;20034;-79
2020/12/14 07:14:47;;;;;;;21.00;13.90;;;;;;;8.34;95.76;100401.59;5008714;28;20125;-78
2020/12/14 07:17:22;;;;;;;16.17;12.37;;;;;;;8.40;95.81;100404.31;5019615;28;20037;-80
2020/12/14 07:19:50;;;;;;;21.37;12.33;;;;;;;8.46;95.78;100414.72;5023305;28;20032;-81
2020/12/14 07:22:20;;;;;;;15.87;11.90;;;;;;;8.44;95.87;100413.78;5024861;28;20029;-80
2020/12/14 07:24:58;;;;;;;14.23;11.43;;;;;;;8.49;95.61;100414.81;5019794;28;20400;-79
2020/12/14 07:27:27;;;;;;;17.23;11.17;;;;;;;8.54;95.52;100420.91;5018697;28;20464;-79
2020/12/14 07:30:05;;;;;;;13.93;10.70;;;;;;;8.56;95.40;100416.69;5018770;28;20030;-80
2020/12/14 07:32:30;;;;;;;13.87;10.07;;;;;;;8.53;95.43;100420.88;5016393;28;20063;-81
2020/12/14 07:34:55;;;;;;;16.20;10.73;;;;;;;8.55;95.65;100430.31;5019282;28;20504;-78
2020/12/14 07:37:24;;;;;;;14.48;10.07;;;;;;;8.64;95.29;100445.03;5020378;28;20026;-82
2020/12/14 07:39:51;;;;;;;14.13;10.57;;;;;;;8.65;95.09;100437.38;5016972;28;20025;-79
2020/12/14 07:42:23;;;;;;;16.13;11.30;;;;;;;8.71;95.29;100432.41;5020430;28;20022;-78
2020/12/14 07:44:49;;;;;;;15.27;10.50;;;;;;;8.74;95.00;100442.72;5019118;28;20030;-80
2020/12/14 07:47:21;;;;;;;14.48;10.32;;;;;;;8.70;94.99;100446.03;5018158;28;20052;-80
2020/12/14 07:49:47;;;;;;;14.57;11.07;;;;;;;8.68;95.10;100446.84;5017501;28;20438;-81
2020/12/14 07:52:25;;;;;;;14.73;10.43;;;;;;;8.78;94.98;100446.25;5020150;28;20037;-80
2020/12/14 07:55:02;;;;;;;14.03;10.97;;;;;;;8.80;94.78;100451.41;5016626;28;20026;-79
2020/12/14 07:57:34;;;;;;;18.70;11.10;;;;;;;8.79;95.08;100455.66;5017184;28;20022;-80
2020/12/14 07:59:59;;;;;;;12.90;10.57;;;;;;;8.78;95.11;100463.28;5016519;28;20024;-79
2020/12/14 08:02:26;;;;;;;14.63;10.48;;;;;;;8.82;95.04;100460.00;5016563;28;20052;-81
2020/12/14 08:05:03;;;;;;;13.80;10.80;;;;;;;8.82;94.91;100470.25;5014396;28;20636;-79
2020/12/14 08:07:34;;;;;;;14.68;9.75;;;;;;;8.82;94.83;100477.94;5014562;28;20021;-78
2020/12/14 08:10:01;;;;;;;11.60;8.90;;;;;;;8.91;94.50;100462.78;5010383;28;20037;-79
2020/12/14 08:12:26;;;;;;;11.13;8.32;;;;;;;8.93;94.39;100474.78;5012705;28;20029;-78
2020/12/14 08:14:52;;;;;;;17.55;9.27;;;;;;;8.94;94.18;100475.66;5014117;28;20034;-80
2020/12/14 08:17:17;;;;;;;14.13;8.65;;;;;;;8.94;94.40;100485.91;5012248;28;20021;-79
2020/12/14 08:19:44;;;;;;;14.35;9.20;;;;;;;8.94;94.35;100475.66;5013248;28;20026;-80
2020/12/14 08:22:14;;;;;;;10.77;8.13;;;;;;;8.98;94.11;100474.91;5010836;28;20502;-79
2020/12/14 08:24:41;;;;;;;11.63;9.17;;;;;;;8.99;94.23;100472.38;5011314;28;20450;-78
2020/12/14 08:27:23;;;;;;;9.43;7.43;;;;;;;9.02;94.10;100484.38;5011432;28;20030;-79
2020/12/14 08:30:04;;;;;;;13.43;7.63;;;;;;;9.01;93.97;100467.28;5012559;28;20045;-79
2020/12/14 08:32:29;;;;;;;12.63;7.28;;;;;;;9.07;93.74;100477.66;5008662;28;20026;-78
2020/12/14 08:34:55;;;;;;;12.77;7.87;;;;;;;9.07;94.06;100480.22;5011687;28;20402;-79
2020/12/14 08:37:20;;;;;;;12.95;7.38;;;;;;;9.08;93.86;100479.41;5012122;28;20030;-79
2020/12/14 08:40:03;;;;;;;9.43;6.55;;;;;;;9.07;93.73;100475.09;5011468;28;20022;-79
2020/12/14 08:42:32;;;;;;;12.18;6.95;;;;;;;9.09;93.62;100483.69;5011026;28;20712;-78
2020/12/14 08:45:12;;;;;;;11.65;6.53;;;;;;;9.14;93.65;100483.84;5011690;28;20059;-79
2020/12/14 08:47:40;;;;;;;10.25;6.43;;;;;;;9.18;93.39;100480.50;5009950;28;20032;-78
2020/12/14 08:50:11;;;;;;;9.10;6.60;;;;;;;9.20;93.40;100487.41;5011099;28;20030;-78
2020/12/14 08:52:37;;;;;;;11.68;6.53;;;;;;;9.13;93.40;100492.34;5010637;28;20462;-79
2020/12/14 08:55:03;;;;;;;9.25;6.22;;;;;;;9.20;93.37;100495.09;5012022;28;20030;-78
2020/12/14 08:57:30;;;;;;;9.40;5.30;;;;;;;9.25;93.20;100502.88;5013420;28;20510;-79
2020/12/14 09:00:07;;;;;;;8.10;5.78;;;;;;;9.27;93.04;100504.66;5012431;28;20094;-78
2020/12/14 09:02:32;;;;;;;7.38;5.07;;;;;;;9.25;93.13;100508.88;5011128;28;20049;-80
2020/12/14 09:04:58;;;;;;;9.32;5.93;;;;;;;9.31;93.02;100503.88;5010633;28;20017;-78
2020/12/14 09:07:24;;;;;;;8.00;5.95;;;;;;;9.30;93.00;100506.41;5012345;28;20549;-79
2020/12/14 09:09:50;;;;;;;10.95;5.10;;;;;;;9.36;92.93;100521.94;5011736;28;20487;-78
2020/12/14 09:12:16;;;;;;;10.32;4.97;;;;;;;9.32;92.98;100515.00;5010307;28;20014;-78
2020/12/14 09:14:41;;;;;;;6.88;4.72;;;;;;;9.40;92.74;100522.88;5022460;28;20037;-80
2020/12/14 09:17:18;;;;;;;7.43;4.30;;;;;;;9.35;92.74;100526.19;5024181;28;20026;-80
2020/12/14 09:19:53;;;;;;;9.13;4.82;;;;;;;9.43;92.31;100531.53;5023910;28;20040;-81
2020/12/14 09:22:22;;;;;;;9.07;4.38;;;;;;;9.41;92.61;100528.03;5022197;28;20025;-79
2020/12/14 09:24:47;;;;;;;7.47;4.22;;;;;;;9.51;92.15;100536.81;5020571;28;20086;-81
2020/12/14 09:27:16;;;;;;;8.95;4.13;;;;;;;9.47;92.13;100535.88;5020032;28;20025;-83
2020/12/14 09:29:42;;;;;;;8.43;4.50;;;;;;;9.50;92.26;100542.78;5020265;28;20085;-80
2020/12/14 09:32:09;;;;;;;5.32;4.18;;;;;;;9.57;92.69;100547.22;5021830;28;20022;-79
2020/12/14 09:34:35;;;;;;;7.43;4.00;;;;;;;9.63;92.03;100548.22;5018985;28;20505;-81
2020/12/14 09:37:02;;;;;;;10.20;4.75;;;;;;;9.68;91.88;100550.88;5020279;28;20036;-81
2020/12/14 09:39:28;;;;;;;8.18;4.60;;;;;;;9.66;91.99;100550.84;5017212;28;20091;-78
2020/12/14 09:41:56;;;;;;;8.75;4.22;;;;;;;9.77;91.50;100555.38;5029457;28;20050;-80
2020/12/14 09:44:23;;;;;;;7.03;4.13;;;;;;;9.82;91.41;100548.63;5024108;28;20034;-81
2020/12/14 09:46:48;;;;;;;5.80;3.55;;;;;;;9.83;90.93;100556.34;5016229;28;20030;-80
2020/12/14 09:49:14;;;;;;;7.45;3.15;;;;;;;9.81;90.71;100557.16;5017360;28;20102;-80
2020/12/14 09:51:39;;;;;;;6.40;3.58;;;;;;;9.82;90.84;100558.88;5015081;28;20022;-80
2020/12/14 09:54:06;;;;;;;5.00;3.28;;;;;;;9.77;90.72;100563.06;5013193;28;20037;-79
2020/12/14 09:56:32;;;;;;;8.23;3.80;;;;;;;9.76;90.73;100563.91;5011004;28;20159;-78
2020/12/14 09:58:58;;;;;;;5.13;3.30;;;;;;;9.64;90.53;100564.47;5011679;28;20037;-79
2020/12/14 10:01:28;;;;;;;8.27;3.97;;;;;;;9.68;91.09;100566.25;5014105;28;20030;-78
2020/12/14 10:03:53;;;;;;;6.78;3.20;;;;;;;9.66;90.76;100565.34;5012818;28;20503;-81
2020/12/14 10:06:19;;;;;;;7.65;4.07;;;;;;;9.69;91.07;100575.69;5011413;28;20089;-80
2020/12/14 10:08:44;;;;;;;5.55;3.63;;;;;;;9.72;90.64;100575.75;5011667;28;20086;-81
2020/12/14 10:11:10;;;;;;;6.40;3.55;;;;;;;9.75;90.26;100563.00;5022133;28;20029;-79
2020/12/14 10:13:36;;;;;;;8.80;4.20;;;;;;;9.89;90.41;100565.88;5010643;28;20025;-82
2020/12/14 10:16:02;;;;;;;8.43;3.85;;;;;;;10.11;89.66;100572.34;5010858;28;20086;-80
2020/12/14 10:18:28;;;;;;;7.78;2.83;;;;;;;10.79;86.92;100571.19;5012408;28;20528;-78
2020/12/14 10:20:53;;;;;;;4.55;2.60;;;;;;;10.91;86.33;100573.09;5012080;28;20247;-81
2020/12/14 10:23:19;;;;;;;8.93;3.47;;;;;;;10.87;86.78;100569.59;5010350;28;20040;-79
2020/12/14 10:25:44;;;;;;;9.10;2.60;;;;;;;10.83;86.66;100584.94;5010298;28;20029;-82
2020/12/14 10:28:10;;;;;;;5.45;2.85;;;;;;;10.74;87.11;100582.22;5012340;28;20373;-81
2020/12/14 10:30:36;;;;;;;6.32;2.97;;;;;;;10.72;87.31;100584.72;5012474;28;20726;-83
2020/12/14 10:33:03;;;;;;;7.57;2.83;;;;;;;10.66;87.21;100591.44;5006000;28;20030;-80
2020/12/14 10:35:28;;;;;;;6.53;2.65;;;;;;;10.50;87.42;100593.75;5010840;28;20625;-82
2020/12/14 10:37:55;;;;;;;3.80;3.08;;;;;;;10.38;87.70;100588.34;5009080;28;20022;-80
2020/12/14 10:40:21;;;;;;;4.80;2.88;;;;;;;10.45;88.20;100590.22;5007359;28;20444;-78
2020/12/14 10:42:46;;;;;;;5.05;3.00;;;;;;;10.59;87.36;100586.19;5008347;28;20022;-82
2020/12/14 10:45:12;;;;;;;4.90;3.00;;;;;;;10.64;86.14;100586.28;5006717;28;20037;-79
2020/12/14 10:47:39;;;;;;;4.60;2.58;;;;;;;10.83;86.17;100595.22;5001625;28;20274;-80
2020/12/14 10:50:05;;;;;;;5.25;2.60;;;;;;;10.98;85.59;100600.63;5004343;28;20113;-82
2020/12/14 10:52:30;;;;;;;;;;;;;;;10.79;85.08;100591.72;5008943;28;20018;-79
2020/12/14 10:54:56;;;;;;;3.97;2.60;;;;;;;10.60;85.66;100597.34;5008996;28;20289;-82
2020/12/14 10:57:21;;;;;;;4.63;2.58;;;;;;;10.47;86.41;100598.81;5008551;28;20038;-83
2020/12/14 10:59:46;;;;;;;5.50;2.60;;;;;;;10.31;86.91;100612.16;5008620;28;20040;-81
2020/12/14 11:02:12;;;;;;;4.85;2.78;;;;;;;10.22;87.65;100614.53;5007754;28;20285;-79
2020/12/14 11:04:38;;;;;;;5.80;3.35;;;;;;;10.12;88.14;100608.31;5009393;28;20022;-78
2020/12/14 11:07:06;;;;;;;8.00;3.17;;;;;;;10.15;88.62;100607.50;5007670;28;20041;-80
2020/12/14 11:09:31;;;;;;;7.60;3.00;;;;;;;10.23;88.25;100613.72;5007124;28;20030;-77
2020/12/14 11:11:56;;;;;;;5.50;3.03;;;;;;;10.25;88.29;100604.34;5012879;28;20037;-81
2020/12/14 11:14:22;;;;;;;6.17;2.77;;;;;;;10.34;88.37;100601.94;5019470;28;20284;-81
2020/12/14 11:16:47;;;;;;;8.60;3.85;;;;;;;10.41;87.66;100596.13;5032409;28;20054;-81
2020/12/14 11:19:12;;;;;;;4.60;2.75;;;;;;;10.48;87.37;100605.69;5024479;28;20074;-81
2020/12/14 11:21:37;;;;;;;9.07;4.13;;;;;;;10.51;87.74;100600.59;5018786;28;20018;-81
2020/12/14 11:24:04;;;;;;;7.40;3.37;;;;;;;10.50;87.33;100604.00;5017874;28;20039;-82
2020/12/14 11:26:30;;;;;;;5.07;2.58;;;;;;;10.49;87.74;100604.84;5017752;28;20280;-79